createdAt,value
2019-01-23T00:01:02.994Z,35.25
2019-01-23T00:01:51.447Z,33.70
2019-01-23T00:02:37.496Z,35.90
2019-01-23T00:03:23.499Z,36.35
2019-01-23T00:04:09.615Z,36.28
2019-01-23T00:04:55.834Z,34.48
2019-01-23T00:05:41.682Z,35.08
2019-01-23T00:06:28.114Z,36.00
2019-01-23T00:07:13.962Z,34.53
2019-01-23T00:08:00.398Z,36.00
2019-01-23T00:08:46.516Z,34.80
2019-01-23T00:09:32.516Z,35.25
2019-01-23T00:10:18.515Z,36.48
2019-01-23T00:11:04.698Z,34.10
2019-01-23T00:11:51.516Z,36.40
2019-01-23T00:12:37.856Z,33.33
2019-01-23T00:13:24.399Z,35.90
2019-01-23T00:14:10.934Z,34.08
2019-01-23T00:14:57.125Z,34.18
2019-01-23T00:15:43.387Z,35.38
2019-01-23T00:16:29.624Z,35.05
2019-01-23T00:17:15.996Z,33.95
2019-01-23T00:18:02.326Z,35.08
2019-01-23T00:18:49.048Z,34.83
2019-01-23T00:19:35.379Z,34.48
2019-01-23T00:20:21.428Z,35.30
2019-01-23T00:21:08.623Z,33.98
2019-01-23T00:21:54.744Z,36.35
2019-01-23T00:22:42.186Z,34.95
2019-01-23T00:23:28.574Z,36.17
2019-01-23T00:24:14.973Z,34.75
2019-01-23T00:25:01.436Z,36.95
2019-01-23T00:25:48.824Z,34.25
2019-01-23T00:26:35.115Z,34.85
2019-01-23T00:27:21.367Z,34.18
2019-01-23T00:28:07.904Z,36.17
2019-01-23T00:28:54.215Z,35.90
2019-01-23T00:29:40.119Z,35.65
2019-01-23T00:30:27.742Z,35.60
2019-01-23T00:31:14.042Z,33.85
2019-01-23T00:32:00.096Z,32.75
2019-01-23T00:32:46.180Z,36.50
2019-01-23T00:33:32.548Z,34.78
2019-01-23T00:34:18.605Z,34.20
2019-01-23T00:35:05.829Z,35.33
2019-01-23T00:35:52.044Z,35.50
2019-01-23T00:36:38.462Z,35.30
2019-01-23T00:37:24.441Z,35.88
2019-01-23T00:38:10.516Z,36.58
2019-01-23T00:38:56.743Z,34.40
2019-01-23T00:39:44.016Z,35.60
2019-01-23T00:40:30.547Z,34.05
2019-01-23T00:41:17.382Z,34.95
2019-01-23T00:42:04.081Z,34.38
2019-01-23T00:42:50.516Z,34.85
2019-01-23T00:43:37.092Z,34.60
2019-01-23T00:44:23.363Z,35.00
2019-01-23T00:45:10.434Z,34.73
2019-01-23T00:45:56.908Z,34.20
2019-01-23T00:46:43.036Z,35.70
2019-01-23T00:47:29.574Z,36.10
2019-01-23T00:48:16.002Z,35.48
2019-01-23T00:49:01.874Z,34.85
2019-01-23T00:49:47.796Z,34.15
2019-01-23T00:50:34.895Z,34.23
2019-01-23T00:51:21.233Z,33.30
2019-01-23T00:52:07.220Z,34.10
2019-01-23T00:52:53.192Z,34.70
2019-01-23T00:53:39.506Z,35.65
2019-01-23T00:54:25.455Z,35.23
2019-01-23T00:55:12.687Z,33.95
2019-01-23T00:55:58.772Z,34.80
2019-01-23T00:56:44.780Z,33.55
2019-01-23T00:57:31.048Z,35.17
2019-01-23T00:58:18.132Z,35.33
2019-01-23T00:59:04.458Z,34.15
2019-01-23T00:59:50.500Z,33.70
2019-01-23T01:00:36.915Z,34.98
2019-01-23T01:01:22.940Z,35.08
2019-01-23T01:02:09.497Z,33.90
2019-01-23T01:02:55.587Z,35.10
2019-01-23T01:03:42.223Z,34.58
2019-01-23T01:04:28.296Z,32.85
2019-01-23T01:05:15.052Z,34.63
2019-01-23T01:06:01.474Z,34.78
2019-01-23T01:06:47.678Z,35.13
2019-01-23T01:07:34.064Z,32.80
2019-01-23T01:08:20.181Z,35.35
2019-01-23T01:09:09.185Z,35.30
2019-01-23T01:09:55.407Z,35.43
2019-01-23T01:10:42.463Z,35.60
2019-01-23T01:11:29.030Z,37.10
2019-01-23T01:12:15.741Z,35.83
2019-01-23T01:13:02.361Z,34.78
2019-01-23T01:13:48.431Z,37.40
2019-01-23T01:14:35.476Z,35.73
2019-01-23T01:15:23.146Z,38.98
2019-01-23T01:16:09.766Z,40.60
2019-01-23T01:16:57.035Z,42.70
2019-01-23T01:17:43.427Z,42.50
2019-01-23T01:18:29.603Z,43.52
2019-01-23T01:19:15.589Z,42.33
2019-01-23T01:20:01.581Z,44.08
2019-01-23T01:20:48.016Z,41.02
2019-01-23T01:21:34.034Z,42.70
2019-01-23T01:22:19.911Z,44.40
2019-01-23T01:23:05.882Z,43.58
2019-01-23T01:23:52.297Z,42.55
2019-01-23T01:24:38.718Z,43.63
2019-01-23T01:25:25.159Z,41.23
2019-01-23T01:26:11.730Z,42.60
2019-01-23T01:26:57.685Z,45.40
2019-01-23T01:27:43.937Z,45.83
2019-01-23T01:28:30.297Z,48.17
2019-01-23T01:29:16.631Z,46.73
2019-01-23T01:30:04.030Z,43.90
2019-01-23T01:30:50.007Z,46.90
2019-01-23T01:31:35.988Z,47.58
2019-01-23T01:32:22.372Z,49.98
2019-01-23T01:33:08.398Z,50.50
2019-01-23T01:33:54.780Z,51.33
2019-01-23T01:34:41.036Z,50.70
2019-01-23T01:35:27.304Z,47.25
2019-01-23T01:36:13.856Z,48.40
2019-01-23T01:37:00.363Z,47.67
2019-01-23T01:37:46.956Z,45.55
2019-01-23T01:38:32.927Z,47.90
2019-01-23T01:39:18.943Z,44.20
2019-01-23T01:40:06.519Z,45.95
2019-01-23T01:40:52.771Z,44.95
2019-01-23T01:41:38.661Z,47.30
2019-01-23T01:42:24.535Z,47.67
2019-01-23T01:43:10.550Z,47.62
2019-01-23T01:43:56.931Z,48.90
2019-01-23T01:44:43.330Z,48.13
2019-01-23T01:45:29.187Z,47.73
2019-01-23T01:46:15.160Z,48.70
2019-01-23T01:47:01.137Z,50.35
2019-01-23T01:47:47.575Z,46.73
2019-01-23T01:48:34.167Z,48.17
2019-01-23T01:49:20.575Z,48.87
2019-01-23T01:50:09.567Z,49.98
2019-01-23T01:50:55.443Z,46.95
2019-01-23T01:51:42.615Z,47.62
2019-01-23T01:52:29.023Z,44.93
2019-01-23T01:53:15.968Z,45.30
2019-01-23T01:54:03.248Z,44.67
2019-01-23T01:54:49.687Z,43.35
2019-01-23T01:55:36.075Z,43.92
2019-01-23T01:56:22.711Z,41.77
2019-01-23T01:57:08.950Z,41.48
2019-01-23T01:57:58.606Z,39.48
2019-01-23T01:58:44.826Z,40.20
2019-01-23T01:59:31.017Z,41.00
2019-01-23T02:00:19.097Z,40.70
2019-01-23T02:01:05.134Z,41.10
2019-01-23T02:01:51.549Z,40.95
2019-01-23T02:02:37.578Z,39.92
2019-01-23T02:03:24.085Z,39.35
2019-01-23T02:04:10.032Z,39.42
2019-01-23T02:04:55.914Z,39.15
2019-01-23T02:05:45.212Z,40.43
2019-01-23T02:06:31.427Z,37.75
2019-01-23T02:07:17.438Z,37.75
2019-01-23T02:08:03.852Z,35.98
2019-01-23T02:08:50.319Z,35.78
2019-01-23T02:09:36.336Z,37.80
2019-01-23T02:10:24.051Z,35.73
2019-01-23T02:11:10.266Z,37.35
2019-01-23T02:11:56.203Z,33.23
2019-01-23T02:12:42.416Z,34.65
2019-01-23T02:13:28.903Z,35.48
2019-01-23T02:14:15.095Z,34.08
2019-01-23T02:15:01.430Z,35.78
2019-01-23T02:15:47.606Z,34.43
2019-01-23T02:16:34.796Z,35.23
2019-01-23T02:17:21.318Z,33.75
2019-01-23T02:18:07.771Z,35.13
2019-01-23T02:18:53.923Z,34.45
2019-01-23T02:19:40.201Z,35.55
2019-01-23T02:20:27.377Z,33.78
2019-01-23T02:21:13.341Z,34.27
2019-01-23T02:21:59.233Z,34.35
2019-01-23T02:22:45.683Z,34.27
2019-01-23T02:23:32.038Z,33.58
2019-01-23T02:24:18.092Z,34.75
2019-01-23T02:25:05.069Z,32.70
2019-01-23T02:25:51.362Z,32.65
2019-01-23T02:26:37.362Z,32.30
2019-01-23T02:27:24.452Z,31.65
2019-01-23T02:28:10.850Z,33.42
2019-01-23T02:28:57.080Z,33.80
2019-01-23T02:29:43.022Z,32.40
2019-01-23T02:30:29.044Z,31.70
2019-01-23T02:31:15.515Z,33.00
2019-01-23T02:32:01.771Z,33.23
2019-01-23T02:32:48.177Z,31.95
2019-01-23T02:33:34.067Z,31.62
2019-01-23T02:34:20.161Z,32.25
2019-01-23T02:35:07.207Z,33.40
2019-01-23T02:35:53.185Z,31.50
2019-01-23T02:36:39.737Z,31.15
2019-01-23T02:37:25.797Z,32.23
2019-01-23T02:38:12.512Z,31.65
2019-01-23T02:38:58.808Z,31.73
2019-01-23T02:39:45.532Z,31.27
2019-01-23T02:40:32.035Z,31.55
2019-01-23T02:41:18.061Z,30.25
2019-01-23T02:42:04.880Z,32.60
2019-01-23T02:42:51.532Z,31.48
2019-01-23T02:43:37.840Z,32.90
2019-01-23T02:44:23.874Z,32.03
2019-01-23T02:45:10.870Z,31.17
2019-01-23T02:45:56.850Z,30.92
2019-01-23T02:46:43.171Z,32.20
2019-01-23T02:47:29.709Z,33.55
2019-01-23T02:48:15.735Z,31.87
2019-01-23T02:49:01.999Z,31.75
2019-01-23T02:49:47.954Z,30.40
2019-01-23T02:50:34.419Z,31.55
2019-01-23T02:51:20.392Z,32.13
2019-01-23T02:52:06.284Z,32.17
2019-01-23T02:52:52.736Z,32.23
2019-01-23T02:53:39.215Z,31.80
2019-01-23T02:54:26.395Z,30.68
2019-01-23T02:55:12.810Z,30.85
2019-01-23T02:55:58.942Z,31.48
2019-01-23T02:56:44.927Z,29.57
2019-01-23T02:57:30.920Z,31.20
2019-01-23T02:58:16.880Z,30.35
2019-01-23T02:59:03.422Z,29.37
2019-01-23T02:59:49.670Z,29.05
2019-01-23T03:00:36.298Z,29.57
2019-01-23T03:01:22.502Z,30.48
2019-01-23T03:02:09.078Z,29.57
2019-01-23T03:02:55.117Z,30.45
2019-01-23T03:03:41.175Z,29.25
2019-01-23T03:04:27.002Z,29.95
2019-01-23T03:05:15.932Z,29.80
2019-01-23T03:06:01.815Z,29.87
2019-01-23T03:06:47.618Z,30.88
2019-01-23T03:07:34.679Z,30.72
2019-01-23T03:08:20.759Z,28.55
2019-01-23T03:09:08.785Z,28.90
2019-01-23T03:09:55.009Z,27.85
2019-01-23T03:10:41.503Z,29.05
2019-01-23T03:11:27.589Z,29.32
2019-01-23T03:12:13.468Z,29.18
2019-01-23T03:12:59.930Z,28.35
2019-01-23T03:13:45.741Z,28.90
2019-01-23T03:14:31.547Z,29.95
2019-01-23T03:15:18.137Z,29.45
2019-01-23T03:16:04.344Z,27.98
2019-01-23T03:16:50.307Z,29.95
2019-01-23T03:17:36.566Z,28.60
2019-01-23T03:18:22.482Z,28.60
2019-01-23T03:19:09.071Z,29.02
2019-01-23T03:19:55.175Z,29.20
2019-01-23T03:20:41.222Z,28.57
2019-01-23T03:21:27.683Z,28.50
2019-01-23T03:22:13.799Z,27.60
2019-01-23T03:23:00.353Z,27.37
2019-01-23T03:23:46.746Z,28.30
2019-01-23T03:24:32.906Z,26.93
2019-01-23T03:25:21.507Z,26.97
2019-01-23T03:26:07.781Z,27.58
2019-01-23T03:26:54.383Z,28.50
2019-01-23T03:27:40.567Z,28.02
2019-01-23T03:28:26.859Z,27.77
2019-01-23T03:29:13.453Z,28.20
2019-01-23T03:29:59.543Z,28.42
2019-01-23T03:30:46.044Z,28.87
2019-01-23T03:31:32.501Z,27.07
2019-01-23T03:32:18.918Z,27.32
2019-01-23T03:33:04.827Z,29.02
2019-01-23T03:33:51.480Z,28.40
2019-01-23T03:34:37.676Z,27.98
2019-01-23T03:35:24.075Z,28.60
2019-01-23T03:36:11.714Z,26.73
2019-01-23T03:36:57.688Z,28.42
2019-01-23T03:37:43.671Z,27.30
2019-01-23T03:38:30.097Z,27.30
2019-01-23T03:39:16.048Z,28.80
2019-01-23T03:40:02.234Z,27.98
2019-01-23T03:40:48.539Z,26.97
2019-01-23T03:41:34.803Z,28.70
2019-01-23T03:42:20.855Z,27.45
2019-01-23T03:43:07.299Z,27.22
2019-01-23T03:43:53.218Z,28.60
2019-01-23T03:44:39.620Z,27.93
2019-01-23T03:45:25.708Z,27.65
2019-01-23T03:46:11.634Z,27.62
2019-01-23T03:46:57.701Z,27.37
2019-01-23T03:47:44.206Z,26.12
2019-01-23T03:48:30.543Z,27.30
2019-01-23T03:49:17.395Z,27.13
2019-01-23T03:50:05.352Z,27.17
2019-01-23T03:50:52.043Z,27.77
2019-01-23T03:51:38.576Z,26.42
2019-01-23T03:52:26.370Z,26.42
2019-01-23T03:53:12.908Z,27.55
2019-01-23T03:54:00.687Z,26.75
2019-01-23T03:54:47.071Z,25.80
2019-01-23T03:55:33.070Z,26.27
2019-01-23T03:56:20.398Z,26.20
2019-01-23T03:57:06.814Z,27.10
2019-01-23T03:57:52.891Z,25.95
2019-01-23T03:58:39.564Z,28.38
2019-01-23T03:59:32.030Z,26.93
2019-01-23T04:00:15.719Z,27.58
2019-01-23T04:01:01.674Z,26.07
2019-01-23T04:01:47.830Z,27.20
2019-01-23T04:02:34.005Z,27.25
2019-01-23T04:03:20.596Z,27.48
2019-01-23T04:04:06.695Z,27.13
2019-01-23T04:04:52.631Z,27.27
2019-01-23T04:05:38.515Z,28.15
2019-01-23T04:06:24.479Z,27.02
2019-01-23T04:07:10.865Z,27.95
2019-01-23T04:07:56.859Z,28.77
2019-01-23T04:08:42.873Z,27.60
2019-01-23T04:09:29.277Z,29.05
2019-01-23T04:10:15.479Z,27.50
2019-01-23T04:11:01.409Z,26.07
2019-01-23T04:11:47.279Z,27.82
2019-01-23T04:12:33.706Z,27.77
2019-01-23T04:13:19.714Z,26.27
2019-01-23T04:14:05.983Z,27.90
2019-01-23T04:14:52.394Z,26.15
2019-01-23T04:15:38.383Z,27.52
2019-01-23T04:16:24.314Z,26.42
2019-01-23T04:17:10.465Z,27.13
2019-01-23T04:17:56.938Z,29.15
2019-01-23T04:18:43.096Z,27.45
2019-01-23T04:19:29.764Z,26.75
2019-01-23T04:20:17.950Z,27.85
2019-01-23T04:21:04.254Z,28.55
2019-01-23T04:21:50.989Z,28.20
2019-01-23T04:22:38.761Z,28.15
2019-01-23T04:23:25.307Z,27.52
2019-01-23T04:24:11.318Z,27.50
2019-01-23T04:24:57.476Z,27.45
2019-01-23T04:25:47.515Z,27.40
2019-01-23T04:26:33.472Z,28.70
2019-01-23T04:27:19.448Z,28.83
2019-01-23T04:28:05.632Z,27.02
2019-01-23T04:28:51.843Z,26.95
2019-01-23T04:29:39.753Z,26.90
2019-01-23T04:30:26.177Z,27.62
2019-01-23T04:31:15.851Z,27.35
2019-01-23T04:32:01.776Z,26.82
2019-01-23T04:32:48.277Z,26.57
2019-01-23T04:33:34.340Z,26.80
2019-01-23T04:34:20.323Z,27.30
2019-01-23T04:35:06.596Z,26.48
2019-01-23T04:35:53.006Z,26.73
2019-01-23T04:36:38.985Z,26.23
2019-01-23T04:37:24.939Z,27.55
2019-01-23T04:38:10.837Z,27.10
2019-01-23T04:38:56.768Z,28.67
2019-01-23T04:39:43.172Z,27.58
2019-01-23T04:40:29.219Z,27.27
2019-01-23T04:41:15.566Z,26.15
2019-01-23T04:42:01.599Z,27.82
2019-01-23T04:42:47.957Z,27.90
2019-01-23T04:43:33.941Z,28.42
2019-01-23T04:44:19.785Z,26.50
2019-01-23T04:45:07.961Z,26.52
2019-01-23T04:45:54.176Z,28.07
2019-01-23T04:46:40.603Z,27.90
2019-01-23T04:47:26.477Z,27.70
2019-01-23T04:48:12.455Z,26.27
2019-01-23T04:48:58.462Z,26.23
2019-01-23T04:49:44.965Z,26.87
2019-01-23T04:50:33.230Z,26.07
2019-01-23T04:51:39.103Z,28.12
2019-01-23T04:52:53.128Z,26.60
2019-01-23T04:53:41.530Z,26.85
2019-01-23T04:54:27.861Z,27.45
2019-01-23T04:55:14.304Z,28.05
2019-01-23T04:56:00.708Z,26.30
2019-01-23T04:56:47.471Z,27.40
2019-01-23T04:57:33.766Z,28.10
2019-01-23T04:58:20.208Z,27.65
2019-01-23T04:59:06.641Z,27.17
2019-01-23T04:59:52.808Z,26.95
2019-01-23T05:00:39.360Z,27.87
2019-01-23T05:01:25.511Z,27.67
2019-01-23T05:02:11.619Z,25.95
2019-01-23T05:02:57.741Z,29.23
2019-01-23T05:03:43.910Z,27.65
2019-01-23T05:04:29.857Z,27.52
2019-01-23T05:05:16.124Z,28.15
2019-01-23T05:06:02.420Z,28.38
2019-01-23T05:06:49.468Z,27.70
2019-01-23T05:07:35.530Z,28.10
2019-01-23T05:08:21.450Z,26.10
2019-01-23T05:09:08.174Z,25.88
2019-01-23T05:09:54.271Z,26.55
2019-01-23T05:10:40.199Z,27.32
2019-01-23T05:11:26.151Z,26.45
2019-01-23T05:12:12.363Z,27.02
2019-01-23T05:12:58.351Z,29.35
2019-01-23T05:13:44.345Z,27.60
2019-01-23T05:14:30.394Z,29.23
2019-01-23T05:15:16.338Z,27.60
2019-01-23T05:16:02.416Z,28.05
2019-01-23T05:16:48.525Z,27.20
2019-01-23T05:17:35.090Z,27.10
2019-01-23T05:18:22.715Z,27.17
2019-01-23T05:19:09.116Z,27.42
2019-01-23T05:19:55.615Z,27.30
2019-01-23T05:20:42.355Z,28.20
2019-01-23T05:21:28.855Z,27.60
2019-01-23T05:22:16.441Z,28.20
2019-01-23T05:23:02.554Z,40.08
2019-01-23T05:23:49.619Z,31.07
2019-01-23T05:24:38.436Z,44.90
2019-01-23T05:25:25.379Z,29.72
2019-01-23T05:26:11.901Z,26.93
2019-01-23T05:26:59.991Z,32.33
2019-01-23T05:27:46.370Z,29.07
2019-01-23T05:28:34.006Z,27.98
2019-01-23T05:29:21.115Z,28.40
2019-01-23T05:30:12.306Z,27.13
2019-01-23T05:30:58.766Z,29.20
2019-01-23T05:31:45.976Z,29.42
2019-01-23T05:32:33.703Z,28.02
2019-01-23T05:33:19.773Z,29.05
2019-01-23T05:34:05.855Z,27.70
2019-01-23T05:37:43.250Z,24.55
2019-01-23T05:38:35.939Z,24.77
2019-01-23T05:39:28.726Z,26.93
2019-01-23T05:40:16.062Z,28.47
2019-01-23T05:41:02.192Z,28.40
2019-01-23T05:41:48.675Z,26.87
2019-01-23T05:42:35.787Z,29.63
2019-01-23T05:43:22.196Z,28.55
2019-01-23T05:44:08.830Z,26.80
2019-01-23T05:44:54.996Z,29.67
2019-01-23T05:45:41.091Z,28.30
2019-01-23T05:46:27.649Z,27.48
2019-01-23T05:47:14.190Z,27.75
2019-01-23T05:48:00.898Z,26.93
2019-01-23T05:48:47.208Z,27.67
2019-01-23T05:49:33.732Z,29.18
2019-01-23T05:50:20.176Z,29.57
2019-01-23T05:51:06.007Z,28.23
2019-01-23T05:51:51.793Z,28.65
2019-01-23T05:52:38.883Z,28.40
2019-01-23T05:53:26.286Z,30.72
2019-01-23T05:54:12.671Z,29.40
2019-01-23T05:54:58.878Z,28.00
2019-01-23T05:55:44.786Z,27.13
2019-01-23T05:56:32.253Z,27.25
2019-01-23T05:57:18.514Z,28.80
2019-01-23T05:58:04.472Z,27.80
2019-01-23T05:58:50.588Z,29.00
2019-01-23T05:59:36.828Z,28.67
2019-01-23T06:00:22.966Z,29.92
2019-01-23T06:01:09.096Z,29.10
2019-01-23T06:01:55.076Z,29.65
2019-01-23T06:02:41.367Z,29.32
2019-01-23T06:03:27.354Z,30.37
2019-01-23T06:04:13.813Z,29.48
2019-01-23T06:04:59.772Z,29.00
2019-01-23T06:05:45.770Z,29.67
2019-01-23T06:06:31.811Z,28.45
2019-01-23T06:07:18.051Z,28.77
2019-01-23T06:08:04.829Z,29.77
2019-01-23T06:08:51.202Z,30.08
2019-01-23T06:09:39.350Z,30.40
2019-01-23T06:10:25.871Z,28.38
2019-01-23T06:11:12.293Z,28.07
2019-01-23T06:11:58.366Z,28.67
2019-01-23T06:12:44.387Z,28.52
2019-01-23T06:13:31.047Z,29.30
2019-01-23T06:14:18.740Z,29.02
2019-01-23T06:15:06.494Z,29.30
2019-01-23T06:15:52.946Z,28.50
2019-01-23T06:16:39.074Z,27.90
2019-01-23T06:17:25.530Z,29.92
2019-01-23T06:18:11.354Z,28.05
2019-01-23T06:18:57.126Z,29.63
2019-01-23T06:19:43.056Z,28.55
2019-01-23T06:20:29.322Z,30.10
2019-01-23T06:21:15.304Z,29.32
2019-01-23T06:22:01.591Z,29.35
2019-01-23T06:22:48.062Z,27.98
2019-01-23T06:23:34.239Z,29.12
2019-01-23T06:24:20.179Z,29.45
2019-01-23T06:25:06.773Z,28.35
2019-01-23T06:25:52.856Z,30.08
2019-01-23T06:26:39.260Z,30.05
2019-01-23T06:27:25.259Z,30.08
2019-01-23T06:28:11.224Z,29.37
2019-01-23T06:28:58.759Z,28.65
2019-01-23T06:29:45.024Z,29.82
2019-01-23T06:30:32.624Z,28.15
2019-01-23T06:31:18.775Z,30.90
2019-01-23T06:32:04.750Z,30.30
2019-01-23T06:32:58.443Z,30.12
2019-01-23T06:33:45.424Z,28.62
2019-01-23T06:34:32.942Z,29.92
2019-01-23T06:35:20.200Z,30.27
2019-01-23T06:36:06.662Z,28.47
2019-01-23T06:36:52.947Z,30.52
2019-01-23T06:37:39.093Z,31.20
2019-01-23T06:38:25.350Z,28.67
2019-01-23T06:39:11.295Z,28.52
2019-01-23T06:39:57.176Z,28.85
2019-01-23T06:40:44.342Z,28.73
2019-01-23T06:41:30.634Z,29.63
2019-01-23T06:42:16.880Z,29.75
2019-01-23T06:43:02.736Z,29.32
2019-01-23T06:43:48.671Z,29.60
2019-01-23T06:44:34.651Z,29.60
2019-01-23T06:45:20.605Z,29.55
2019-01-23T06:46:07.679Z,29.92
2019-01-23T06:46:54.139Z,29.95
2019-01-23T06:47:40.328Z,32.33
2019-01-23T06:48:26.912Z,30.45
2019-01-23T06:49:12.999Z,30.05
2019-01-23T06:49:59.660Z,28.15
2019-01-23T06:50:46.239Z,29.87
2019-01-23T06:51:32.234Z,30.90
2019-01-23T06:52:19.154Z,30.85
2019-01-23T06:53:05.712Z,30.92
2019-01-23T06:53:53.095Z,30.50
2019-01-23T06:54:40.795Z,30.05
2019-01-23T06:55:27.204Z,31.02
2019-01-23T06:56:13.797Z,29.40
2019-01-23T06:57:00.096Z,31.57
2019-01-23T06:57:45.981Z,30.32
2019-01-23T06:58:31.981Z,30.50
2019-01-23T06:59:18.329Z,32.10
2019-01-23T07:00:06.612Z,31.48
2019-01-23T07:00:53.529Z,31.95
2019-01-23T07:01:39.823Z,30.85
2019-01-23T07:02:25.731Z,31.02
2019-01-23T07:03:12.027Z,31.17
2019-01-23T07:03:58.311Z,30.68
2019-01-23T07:04:45.393Z,31.55
2019-01-23T07:05:31.849Z,32.42
2019-01-23T07:06:18.046Z,31.27
2019-01-23T07:07:04.003Z,30.95
2019-01-23T07:07:49.970Z,31.52
2019-01-23T07:08:37.402Z,31.27
2019-01-23T07:09:26.901Z,31.48
2019-01-23T07:10:16.695Z,29.82
2019-01-23T07:11:03.058Z,31.93
2019-01-23T07:11:49.269Z,31.80
2019-01-23T07:12:36.210Z,31.77
2019-01-23T07:13:22.388Z,32.85
2019-01-23T07:14:08.303Z,32.38
2019-01-23T07:14:54.167Z,30.92
2019-01-23T07:15:40.146Z,30.72
2019-01-23T07:16:26.443Z,30.72
2019-01-23T07:17:12.436Z,30.32
2019-01-23T07:17:58.372Z,31.02
2019-01-23T07:18:45.917Z,31.37
2019-01-23T07:19:32.287Z,30.80
2019-01-23T07:20:23.958Z,32.20
2019-01-23T07:21:11.087Z,32.85
2019-01-23T07:21:57.331Z,32.05
2019-01-23T07:22:43.323Z,32.58
2019-01-23T07:23:29.687Z,32.55
2019-01-23T07:24:15.906Z,31.35
2019-01-23T07:25:02.454Z,31.97
2019-01-23T07:25:48.638Z,31.87
2019-01-23T07:26:34.667Z,32.28
2019-01-23T07:27:22.179Z,30.85
2019-01-23T07:28:08.575Z,32.15
2019-01-23T07:28:56.238Z,32.25
2019-01-23T07:29:42.321Z,33.35
2019-01-23T07:30:31.099Z,33.85
2019-01-23T07:31:17.268Z,30.85
2019-01-23T07:32:03.756Z,33.18
2019-01-23T07:32:50.422Z,32.42
2019-01-23T07:33:38.045Z,31.73
2019-01-23T07:34:25.386Z,32.25
2019-01-23T07:35:11.666Z,32.95
2019-01-23T07:35:57.940Z,32.10
2019-01-23T07:36:43.820Z,30.97
2019-01-23T07:37:29.683Z,33.05
2019-01-23T07:38:16.111Z,31.52
2019-01-23T07:39:03.948Z,33.75
2019-01-23T07:39:51.209Z,34.50
2019-01-23T07:40:37.331Z,32.40
2019-01-23T07:41:23.128Z,31.93
2019-01-23T07:42:09.092Z,32.10
2019-01-23T07:42:54.942Z,32.38
2019-01-23T07:43:40.939Z,33.10
2019-01-23T07:44:27.667Z,32.30
2019-01-23T07:45:15.196Z,32.95
2019-01-23T07:46:01.404Z,32.25
2019-01-23T07:46:47.590Z,33.10
2019-01-23T07:47:33.775Z,32.75
2019-01-23T07:48:20.470Z,32.00
2019-01-23T07:49:06.813Z,33.55
2019-01-23T07:49:53.291Z,32.42
2019-01-23T07:50:40.065Z,30.17
2019-01-23T07:51:26.278Z,31.95
2019-01-23T07:52:12.292Z,32.60
2019-01-23T07:52:58.594Z,32.65
2019-01-23T07:53:44.438Z,31.25
2019-01-23T07:54:30.472Z,31.90
2019-01-23T07:55:17.291Z,31.17
2019-01-23T07:56:03.121Z,32.73
2019-01-23T07:56:49.584Z,30.08
2019-01-23T07:57:36.977Z,31.02
2019-01-23T07:58:23.314Z,32.78
2019-01-23T07:59:09.962Z,34.27
2019-01-23T07:59:57.291Z,32.25
2019-01-23T08:00:43.610Z,33.45
2019-01-23T08:01:29.956Z,32.40
2019-01-23T08:02:16.318Z,32.83
2019-01-23T08:03:03.329Z,31.77
2019-01-23T08:03:50.724Z,31.95
2019-01-23T08:04:36.887Z,32.35
2019-01-23T08:05:25.329Z,32.42
2019-01-23T08:06:11.780Z,33.70
2019-01-23T08:06:59.714Z,32.30
2019-01-23T08:07:47.208Z,32.45
2019-01-23T08:08:33.446Z,32.67
2019-01-23T08:09:19.842Z,33.10
2019-01-23T08:10:08.731Z,32.30
2019-01-23T08:10:54.542Z,31.25
2019-01-23T08:11:40.499Z,34.95
2019-01-23T08:12:26.381Z,33.13
2019-01-23T08:13:12.277Z,32.55
2019-01-23T08:13:58.721Z,32.48
2019-01-23T08:14:45.087Z,33.35
2019-01-23T08:15:33.316Z,32.70
2019-01-23T08:16:19.395Z,31.70
2019-01-23T08:17:05.279Z,31.73
2019-01-23T08:17:51.184Z,32.48
2019-01-23T08:18:37.395Z,31.33
2019-01-23T08:19:23.827Z,32.35
2019-01-23T08:20:12.311Z,32.28
2019-01-23T08:20:58.800Z,33.28
2019-01-23T08:21:45.140Z,32.25
2019-01-23T08:22:31.016Z,34.38
2019-01-23T08:23:16.879Z,31.25
2019-01-23T08:24:02.900Z,32.45
2019-01-23T08:24:48.867Z,31.80
2019-01-23T08:25:34.825Z,32.55
2019-01-23T08:26:21.465Z,31.50
2019-01-23T08:27:07.736Z,31.12
2019-01-23T08:27:55.950Z,32.63
2019-01-23T08:28:42.331Z,31.12
2019-01-23T08:29:28.509Z,32.88
2019-01-23T08:30:16.819Z,31.40
2019-01-23T08:31:03.041Z,31.37
2019-01-23T08:31:50.295Z,31.33
2019-01-23T08:32:36.795Z,31.97
2019-01-23T08:33:23.402Z,31.48
2019-01-23T08:34:11.029Z,31.95
2019-01-23T08:34:57.727Z,33.18
2019-01-23T08:35:44.038Z,31.00
2019-01-23T08:36:31.154Z,31.20
2019-01-23T08:37:17.608Z,31.25
2019-01-23T08:38:04.272Z,32.05
2019-01-23T08:38:50.595Z,31.12
2019-01-23T08:39:36.735Z,30.50
2019-01-23T08:40:22.924Z,30.72
2019-01-23T08:41:09.112Z,31.48
2019-01-23T08:41:56.114Z,31.40
2019-01-23T08:42:42.419Z,31.70
2019-01-23T08:43:28.706Z,31.02
2019-01-23T08:44:14.885Z,30.62
2019-01-23T08:45:01.423Z,31.40
2019-01-23T08:45:47.252Z,30.88
2019-01-23T08:46:34.598Z,29.90
2019-01-23T08:47:20.890Z,31.48
2019-01-23T08:48:07.384Z,29.48
2019-01-23T08:48:54.398Z,28.80
2019-01-23T08:49:40.829Z,29.80
2019-01-23T08:50:30.577Z,28.95
2019-01-23T08:51:16.434Z,30.32
2019-01-23T08:52:02.935Z,31.37
2019-01-23T08:52:49.417Z,30.23
2019-01-23T08:53:36.947Z,29.42
2019-01-23T08:54:36.712Z,30.27
2019-01-23T08:55:22.999Z,29.07
2019-01-23T08:56:09.259Z,29.52
2019-01-23T08:56:55.795Z,30.88
2019-01-23T08:57:41.875Z,30.15
2019-01-23T08:58:28.331Z,30.97
2019-01-23T08:59:14.816Z,30.68
2019-01-23T09:00:01.106Z,29.20
2019-01-23T09:00:47.550Z,31.90
2019-01-23T09:01:34.544Z,29.70
2019-01-23T09:02:21.035Z,31.00
2019-01-23T09:03:07.256Z,31.65
2019-01-23T09:03:53.249Z,29.82
2019-01-23T09:04:39.203Z,29.07
2019-01-23T09:05:26.206Z,30.27
2019-01-23T09:06:12.365Z,29.80
2019-01-23T09:06:58.308Z,28.77
2019-01-23T09:07:44.194Z,29.15
2019-01-23T09:08:30.192Z,30.97
2019-01-23T09:09:16.134Z,31.57
2019-01-23T09:10:02.335Z,30.92
2019-01-23T09:10:48.811Z,29.40
2019-01-23T09:11:34.908Z,30.20
2019-01-23T09:12:21.003Z,31.30
2019-01-23T09:13:07.535Z,31.48
2019-01-23T09:13:54.138Z,30.68
2019-01-23T09:14:40.979Z,29.42
2019-01-23T09:15:27.406Z,29.98
2019-01-23T09:16:14.022Z,31.37
2019-01-23T09:17:01.606Z,29.32
2019-01-23T09:17:48.085Z,29.42
2019-01-23T09:18:34.246Z,29.92
2019-01-23T09:19:20.638Z,31.25
2019-01-23T09:20:08.072Z,29.70
2019-01-23T09:20:54.205Z,30.23
2019-01-23T09:21:40.757Z,30.05
2019-01-23T09:22:28.331Z,30.70
2019-01-23T09:23:14.882Z,30.68
2019-01-23T09:24:01.102Z,30.00
2019-01-23T09:24:48.511Z,30.50
2019-01-23T09:25:34.921Z,29.50
2019-01-23T09:26:21.342Z,29.67
2019-01-23T09:27:07.584Z,29.70
2019-01-23T09:27:53.847Z,29.87
2019-01-23T09:28:40.307Z,31.33
2019-01-23T09:29:26.399Z,29.75
2019-01-23T09:30:27.690Z,29.45
2019-01-23T09:31:58.715Z,28.52
2019-01-23T09:33:25.939Z,26.95
2019-01-23T09:34:27.163Z,27.95
2019-01-23T09:36:16.534Z,28.42
2019-01-23T09:37:51.081Z,26.70
2019-01-23T09:39:18.424Z,27.67
2019-01-23T09:40:45.878Z,25.97
2019-01-23T09:42:28.187Z,26.05
2019-01-23T09:44:07.747Z,26.10
2019-01-23T09:45:28.905Z,25.95
2019-01-23T09:46:24.627Z,25.45
2019-01-23T09:47:31.279Z,26.75
2019-01-23T09:48:24.055Z,27.65
2019-01-23T09:49:51.421Z,27.52
2019-01-23T09:51:24.041Z,28.00
2019-01-23T09:52:56.555Z,26.55
2019-01-23T09:53:51.579Z,26.85
2019-01-23T09:54:37.546Z,29.15
2019-01-23T09:55:23.491Z,27.65
2019-01-23T09:56:11.871Z,28.75
2019-01-23T09:56:57.832Z,28.62
2019-01-23T09:57:47.699Z,29.72
2019-01-23T09:58:33.686Z,29.55
2019-01-23T09:59:19.851Z,28.00
2019-01-23T10:00:09.596Z,27.82
2019-01-23T10:00:59.850Z,28.80
2019-01-23T10:01:44.002Z,27.73
2019-01-23T10:02:30.403Z,28.55
2019-01-23T10:03:22.802Z,28.32
2019-01-23T10:04:04.373Z,29.23
2019-01-23T10:04:50.556Z,29.95
2019-01-23T10:05:37.726Z,29.07
2019-01-23T10:06:23.861Z,29.10
2019-01-23T10:07:09.942Z,29.12
2019-01-23T10:07:57.367Z,29.00
2019-01-23T10:08:44.590Z,28.85
2019-01-23T10:09:30.673Z,28.90
2019-01-23T10:10:18.707Z,29.18
2019-01-23T10:11:07.038Z,27.98
2019-01-23T10:11:53.379Z,28.23
2019-01-23T10:12:40.408Z,28.17
2019-01-23T10:13:26.731Z,28.77
2019-01-23T10:14:14.265Z,29.52